aviador You're here:

MMTJ Decoded Metar

TIJUANA in MEXICO
Report Time2018-02-18 20:48:00
UTC Time2018-02-18 21:48:39
Flight Rules vfr VFR
Wind270° at 13 kt
W.Decomp.*RWY 27: 12.7 kt HW 2.9 kt LCW
W.Rank270° ranks 3
Current wind is above 270° avg. (7.4)
Visibility9999 m
Phenomena:N/A
Clouds:Few 060 Hf
Scattered 200 Hf
Expected CloudBase > 4,400 ft AGL from Temp-Dew spread
CeilingNone
Temp19°C (ISA +5)
Dew Point08°C (49% RH)
AAT13.9°C
QNH1015 hPa
Density Alt1,165 ft
Elevation499 ft
Report Wrong Elevation
Raw Report
METAR MMTJ 182048Z 27013KT 10SM FEW060 SCT200 19/08 A2998 RMK SLP171
57005 979 8/508 HZY=

Extra information for MMTJ:More info

Metar Taf Metar & Taf Last 4 Metars F.Rules Stats Wind Profile Meteogram Temp Stats Airport Information Weather charts Add Link Nearby VenuesMetar ALERT Operation Metar Decoded Social comments